East Peoria, IL

4:14 AM CST on November 28, 2014 (GMT -0600)
Central Ill Regional | Change Station
CLOSE
Current Station
Airport
Location: Bloomington,
Elevation: 869 ft
Nearby Weather Stations

Elev 869 ft 40.48 °N, 88.91 °W | Updated 18 minutes ago

Overcast
Overcast
17 °F
Feels Like 10 °F
N
5
Wind Variable Wind from SSE

Today
High -- | Low -- °F
--% Chance of Precip.
Yesterday
High -- | Low -- °F
Precip. -- in
6:59 AM 4:32 PM
Waxing Crescent, 39% visible
Pressure 30.42 in
Visibility 10.0 miles
Clouds Mostly Cloudy 6500 ft
Mostly Cloudy 8000 ft
Windchill 10 °F
Dew Point 13 °F
Humidity 84%
Rainfall 0.00 in
Snow Depth Not available.
UV 0 out of 12
Pollen .10 out of 12
Air Quality Not available.
Flu Activity Not available.
METAR KBMI 280956Z AUTO 16004KT 10SM BKN065 BKN080 M08/M11 A3034 RMK AO2 T10831105 BKN V SCT SLP300

More Conditions Fewer Conditions

Pressure 30.42 in
Visibility 10.0 miles
Clouds Mostly Cloudy 6500 ft
Mostly Cloudy 8000 ft
Windchill 10 °F
Dew Point 13 °F
Humidity 84%
Rainfall 0.00 in
Snow Depth Not available.
UV 0 out of 12
Pollen .10 out of 12
Air Quality Not available.
Flu Activity Not available.
METAR KBMI 280956Z AUTO 16004KT 10SM BKN065 BKN080 M08/M11 A3034 RMK AO2 T10831105 BKN V SCT SLP300

More Conditions Fewer Conditions

10-Day Weather Forecast

Almanac

Astronomy

Nov. 28, 2014 Rise Set
Actual Time
Civil Twilight
Nautical Twilight
Astronomical Twilight
Moon
Length of Visible Light
Length of Day
Tomorrow will be .
, % of the Moon is Illuminated

Today's Extremes

State Highs State Lows

Community

WunderPhotos

Upload Photos

1,774,192 photos uploaded!

WunderBlogs® & News

Nearby

Air Quality

  Air Quality AQ Index Pollutant
Not available.

Snow Depth

Station Depth Elevation

Earthquake Activity

City Distance Mag. Time & Date
Minimum magnitude displayed is 2.5.

Coastal Water Temperatures

Place Temperature

Nearby Weather Stations